sensor_id;sensor_type;location;lat;lon;timestamp;pressure;altitude;pressure_sealevel;temperature
69857;BMP280;57147;53.582;10.112;2023-05-28T00:01:05;102029.81;;;13.51
69857;BMP280;57147;53.582;10.112;2023-05-28T00:06:05;102048.41;;;13.61
69857;BMP280;57147;53.582;10.112;2023-05-28T00:11:06;102061.31;;;13.54
69857;BMP280;57147;53.582;10.112;2023-05-28T00:16:09;102033.19;;;13.33
69857;BMP280;57147;53.582;10.112;2023-05-28T00:21:10;102045.94;;;13.41
69857;BMP280;57147;53.582;10.112;2023-05-28T00:26:10;102055.34;;;13.33
69857;BMP280;57147;53.582;10.112;2023-05-28T00:31:14;102013.16;;;12.96
69857;BMP280;57147;53.582;10.112;2023-05-28T00:36:14;102055.72;;;13.16
69857;BMP280;57147;53.582;10.112;2023-05-28T00:41:18;102056.81;;;13.10
69857;BMP280;57147;53.582;10.112;2023-05-28T00:46:23;102038.72;;;13.02
69857;BMP280;57147;53.582;10.112;2023-05-28T00:51:24;102029.75;;;12.88
69857;BMP280;57147;53.582;10.112;2023-05-28T00:56:24;102018.34;;;12.72
69857;BMP280;57147;53.582;10.112;2023-05-28T01:01:28;102025.78;;;12.81
69857;BMP280;57147;53.582;10.112;2023-05-28T01:06:29;102028.69;;;12.79
69857;BMP280;57147;53.582;10.112;2023-05-28T01:11:30;102029.78;;;12.78
69857;BMP280;57147;53.582;10.112;2023-05-28T01:16:34;102008.84;;;12.56
69857;BMP280;57147;53.582;10.112;2023-05-28T01:21:38;102030.69;;;12.63
69857;BMP280;57147;53.582;10.112;2023-05-28T01:26:43;102022.41;;;12.60
69857;BMP280;57147;53.582;10.112;2023-05-28T01:31:44;102032.53;;;12.58
69857;BMP280;57147;53.582;10.112;2023-05-28T01:36:47;102009.16;;;12.40
69857;BMP280;57147;53.582;10.112;2023-05-28T01:41:52;101977.53;;;12.23
69857;BMP280;57147;53.582;10.112;2023-05-28T01:46:53;102007.59;;;12.39
69857;BMP280;57147;53.582;10.112;2023-05-28T01:51:55;102001.75;;;12.31
69857;BMP280;57147;53.582;10.112;2023-05-28T01:56:58;101999.88;;;12.27
69857;BMP280;57147;53.582;10.112;2023-05-28T02:01:59;101999.09;;;12.21
69857;BMP280;57147;53.582;10.112;2023-05-28T02:07:00;102000.97;;;12.21
69857;BMP280;57147;53.582;10.112;2023-05-28T02:12:03;101992.75;;;12.12
69857;BMP280;57147;53.582;10.112;2023-05-28T02:17:04;101951.84;;;11.63
69857;BMP280;57147;53.582;10.112;2023-05-28T02:22:04;101993.28;;;11.94
69857;BMP280;57147;53.582;10.112;2023-05-28T02:27:08;101997.31;;;11.91
69857;BMP280;57147;53.582;10.112;2023-05-28T02:32:08;101992.25;;;11.85
69857;BMP280;57147;53.582;10.112;2023-05-28T02:37:09;101990.38;;;11.80
69857;BMP280;57147;53.582;10.112;2023-05-28T02:42:12;101974.22;;;11.67
69857;BMP280;57147;53.582;10.112;2023-05-28T02:47:13;101965.69;;;11.65
69857;BMP280;57147;53.582;10.112;2023-05-28T02:52:13;101969.94;;;11.61
69857;BMP280;57147;53.582;10.112;2023-05-28T02:57:16;101980.31;;;11.67
69857;BMP280;57147;53.582;10.112;2023-05-28T03:02:17;101978.44;;;11.63
69857;BMP280;57147;53.582;10.112;2023-05-28T03:07:17;101934.03;;;11.28
69857;BMP280;57147;53.582;10.112;2023-05-28T03:12:21;101989.63;;;11.54
69857;BMP280;57147;53.582;10.112;2023-05-28T03:17:21;101984.31;;;11.49
69857;BMP280;57147;53.582;10.112;2023-05-28T03:22:22;101975.81;;;11.58
69857;BMP280;57147;53.582;10.112;2023-05-28T03:27:25;101990.72;;;11.59
69857;BMP280;57147;53.582;10.112;2023-05-28T03:32:25;101988.03;;;11.59
69857;BMP280;57147;53.582;10.112;2023-05-28T03:37:26;102002.41;;;11.52
69857;BMP280;57147;53.582;10.112;2023-05-28T03:42:29;101988.56;;;11.45
69857;BMP280;57147;53.582;10.112;2023-05-28T03:47:30;101987.22;;;11.48
69857;BMP280;57147;53.582;10.112;2023-05-28T03:52:30;101976.03;;;11.41
69857;BMP280;57147;53.582;10.112;2023-05-28T03:57:33;101975.28;;;11.45
69857;BMP280;57147;53.582;10.112;2023-05-28T04:02:34;101968.88;;;11.46
69857;BMP280;57147;53.582;10.112;2023-05-28T04:07:35;101961.44;;;11.38
69857;BMP280;57147;53.582;10.112;2023-05-28T04:12:38;101962.22;;;11.49
69857;BMP280;57147;53.582;10.112;2023-05-28T04:17:38;101968.34;;;11.54
69857;BMP280;57147;53.582;10.112;2023-05-28T04:22:40;101972.09;;;11.59
69857;BMP280;57147;53.582;10.112;2023-05-28T04:27:43;101965.16;;;11.63
69857;BMP280;57147;53.582;10.112;2023-05-28T04:32:44;101931.13;;;11.39
69857;BMP280;57147;53.582;10.112;2023-05-28T04:37:44;101985.34;;;11.74
69857;BMP280;57147;53.582;10.112;2023-05-28T04:42:48;101981.34;;;11.81
69857;BMP280;57147;53.582;10.112;2023-05-28T04:47:48;101985.31;;;11.94
69857;BMP280;57147;53.582;10.112;2023-05-28T04:52:55;101982.91;;;12.03
69857;BMP280;57147;53.582;10.112;2023-05-28T04:57:58;101955.00;;;11.85
69857;BMP280;57147;53.582;10.112;2023-05-28T05:02:59;101983.97;;;12.12
69857;BMP280;57147;53.582;10.112;2023-05-28T05:07:59;101983.09;;;12.31
69857;BMP280;57147;53.582;10.112;2023-05-28T05:13:02;101985.16;;;12.50
69857;BMP280;57147;53.582;10.112;2023-05-28T05:18:03;101992.53;;;12.68
69857;BMP280;57147;53.582;10.112;2023-05-28T05:23:03;101972.72;;;12.79
69857;BMP280;57147;53.582;10.112;2023-05-28T05:28:07;101990.66;;;13.12
69857;BMP280;57147;53.582;10.112;2023-05-28T05:33:07;101964.41;;;13.25
69857;BMP280;57147;53.582;10.112;2023-05-28T05:38:08;101993.41;;;13.65
69857;BMP280;57147;53.582;10.112;2023-05-28T05:43:11;101988.53;;;13.72
69857;BMP280;57147;53.582;10.112;2023-05-28T05:48:11;101979.34;;;13.83
69857;BMP280;57147;53.582;10.112;2023-05-28T05:53:12;101969.22;;;13.80
69857;BMP280;57147;53.582;10.112;2023-05-28T05:58:15;102004.94;;;14.13
69857;BMP280;57147;53.582;10.112;2023-05-28T06:03:16;102020.00;;;14.28
69857;BMP280;57147;53.582;10.112;2023-05-28T06:08:17;102014.41;;;14.24
69857;BMP280;57147;53.582;10.112;2023-05-28T06:13:20;102013.44;;;14.39
69857;BMP280;57147;53.582;10.112;2023-05-28T06:18:20;102021.94;;;14.41
69857;BMP280;57147;53.582;10.112;2023-05-28T06:23:21;102028.34;;;14.21
69857;BMP280;57147;53.582;10.112;2023-05-28T06:28:25;102033.00;;;14.34
69857;BMP280;57147;53.582;10.112;2023-05-28T06:33:25;102030.69;;;14.46
69857;BMP280;57147;53.582;10.112;2023-05-28T06:38:26;102044.53;;;14.72
69857;BMP280;57147;53.582;10.112;2023-05-28T06:43:29;102030.38;;;14.91
69857;BMP280;57147;53.582;10.112;2023-05-28T06:48:29;102041.13;;;15.04
69857;BMP280;57147;53.582;10.112;2023-05-28T06:53:30;102017.66;;;14.82
69857;BMP280;57147;53.582;10.112;2023-05-28T06:58:33;102051.84;;;15.04
69857;BMP280;57147;53.582;10.112;2023-05-28T07:03:34;102066.97;;;15.27
69857;BMP280;57147;53.582;10.112;2023-05-28T07:08:34;102036.44;;;15.15
69857;BMP280;57147;53.582;10.112;2023-05-28T07:13:38;102063.88;;;15.39
69857;BMP280;57147;53.582;10.112;2023-05-28T07:18:38;102031.47;;;15.41
69857;BMP280;57147;53.582;10.112;2023-05-28T07:23:39;102084.63;;;15.93
69857;BMP280;57147;53.582;10.112;2023-05-28T07:28:42;102079.88;;;16.04
69857;BMP280;57147;53.582;10.112;2023-05-28T07:33:43;102087.81;;;16.09
69857;BMP280;57147;53.582;10.112;2023-05-28T07:38:43;102083.81;;;15.93
69857;BMP280;57147;53.582;10.112;2023-05-28T07:43:46;102098.34;;;15.92
69857;BMP280;57147;53.582;10.112;2023-05-28T07:48:47;102087.94;;;15.71
69857;BMP280;57147;53.582;10.112;2023-05-28T07:53:47;102082.22;;;15.78
69857;BMP280;57147;53.582;10.112;2023-05-28T07:58:55;102103.47;;;15.88
69857;BMP280;57147;53.582;10.112;2023-05-28T08:03:55;102088.00;;;15.99
69857;BMP280;57147;53.582;10.112;2023-05-28T08:08:56;102090.31;;;16.05
69857;BMP280;57147;53.582;10.112;2023-05-28T08:13:59;102082.06;;;16.02
69857;BMP280;57147;53.582;10.112;2023-05-28T08:19:00;102099.31;;;16.23
69857;BMP280;57147;53.582;10.112;2023-05-28T08:24:00;102102.69;;;16.42
69857;BMP280;57147;53.582;10.112;2023-05-28T08:29:04;102102.88;;;16.59
69857;BMP280;57147;53.582;10.112;2023-05-28T08:34:04;102101.44;;;16.76
69857;BMP280;57147;53.582;10.112;2023-05-28T08:39:05;102092.31;;;16.77
69857;BMP280;57147;53.582;10.112;2023-05-28T08:44:08;102067.06;;;16.78
69857;BMP280;57147;53.582;10.112;2023-05-28T08:49:10;102093.56;;;17.15
69857;BMP280;57147;53.582;10.112;2023-05-28T08:54:12;102085.25;;;17.25
69857;BMP280;57147;53.582;10.112;2023-05-28T08:59:16;102060.59;;;17.23
69857;BMP280;57147;53.582;10.112;2023-05-28T09:04:17;102083.19;;;17.44
69857;BMP280;57147;53.582;10.112;2023-05-28T09:09:18;102083.78;;;17.64
69857;BMP280;57147;53.582;10.112;2023-05-28T09:14:21;102075.94;;;17.76
69857;BMP280;57147;53.582;10.112;2023-05-28T09:19:21;102061.88;;;17.79
69857;BMP280;57147;53.582;10.112;2023-05-28T09:24:23;102044.16;;;17.78
69857;BMP280;57147;53.582;10.112;2023-05-28T09:29:26;102071.28;;;18.07
69857;BMP280;57147;53.582;10.112;2023-05-28T09:34:27;102050.06;;;17.97
69857;BMP280;57147;53.582;10.112;2023-05-28T09:39:28;102080.19;;;18.33
69857;BMP280;57147;53.582;10.112;2023-05-28T09:44:32;102073.09;;;18.55
69857;BMP280;57147;53.582;10.112;2023-05-28T09:49:33;102051.56;;;18.29
69857;BMP280;57147;53.582;10.112;2023-05-28T09:54:34;102042.38;;;18.13
69857;BMP280;57147;53.582;10.112;2023-05-28T09:59:39;102080.53;;;18.58
69857;BMP280;57147;53.582;10.112;2023-05-28T10:04:41;102054.28;;;18.55
69857;BMP280;57147;53.582;10.112;2023-05-28T10:09:42;102014.38;;;18.74
69857;BMP280;57147;53.582;10.112;2023-05-28T10:14:46;102068.53;;;19.53
69857;BMP280;57147;53.582;10.112;2023-05-28T10:19:47;102038.56;;;19.55
69857;BMP280;57147;53.582;10.112;2023-05-28T10:24:48;102061.66;;;19.56
69857;BMP280;57147;53.582;10.112;2023-05-28T10:29:51;102066.63;;;19.54
69857;BMP280;57147;53.582;10.112;2023-05-28T10:35:00;102047.00;;;19.45
69857;BMP280;57147;53.582;10.112;2023-05-28T10:40:01;102060.50;;;20.03
69857;BMP280;57147;53.582;10.112;2023-05-28T10:45:08;102067.34;;;19.92
69857;BMP280;57147;53.582;10.112;2023-05-28T10:50:13;102069.13;;;19.88
69857;BMP280;57147;53.582;10.112;2023-05-28T10:55:16;102034.44;;;20.07
69857;BMP280;57147;53.582;10.112;2023-05-28T11:00:25;102063.09;;;20.53
69857;BMP280;57147;53.582;10.112;2023-05-28T11:05:25;102033.78;;;20.10
69857;BMP280;57147;53.582;10.112;2023-05-28T11:10:27;102067.16;;;20.26
69857;BMP280;57147;53.582;10.112;2023-05-28T11:15:31;102065.59;;;20.79
69857;BMP280;57147;53.582;10.112;2023-05-28T11:20:31;102062.44;;;21.22
69857;BMP280;57147;53.582;10.112;2023-05-28T11:25:32;102041.81;;;21.05
69857;BMP280;57147;53.582;10.112;2023-05-28T11:30:35;102047.47;;;20.79
69857;BMP280;57147;53.582;10.112;2023-05-28T11:35:36;102066.22;;;20.76
69857;BMP280;57147;53.582;10.112;2023-05-28T11:40:36;102042.72;;;21.09
69857;BMP280;57147;53.582;10.112;2023-05-28T11:45:40;102047.00;;;21.22
69857;BMP280;57147;53.582;10.112;2023-05-28T11:50:40;102043.88;;;21.20
69857;BMP280;57147;53.582;10.112;2023-05-28T11:55:41;101988.81;;;20.68
69857;BMP280;57147;53.582;10.112;2023-05-28T12:00:44;102048.47;;;21.32
69857;BMP280;57147;53.582;10.112;2023-05-28T12:05:45;102037.75;;;21.60
69857;BMP280;57147;53.582;10.112;2023-05-28T12:10:46;102031.41;;;21.92
69857;BMP280;57147;53.582;10.112;2023-05-28T12:15:49;102031.91;;;21.82
69857;BMP280;57147;53.582;10.112;2023-05-28T12:20:49;102034.81;;;21.77
69857;BMP280;57147;53.582;10.112;2023-05-28T12:25:51;102024.47;;;21.67
69857;BMP280;57147;53.582;10.112;2023-05-28T12:30:54;102027.19;;;21.67
69857;BMP280;57147;53.582;10.112;2023-05-28T12:35:55;102034.50;;;21.78
69857;BMP280;57147;53.582;10.112;2023-05-28T12:40:56;102026.19;;;22.27
69857;BMP280;57147;53.582;10.112;2023-05-28T12:45:59;102026.41;;;22.62
69857;BMP280;57147;53.582;10.112;2023-05-28T12:51:00;102022.84;;;23.05
69857;BMP280;57147;53.582;10.112;2023-05-28T12:56:00;101995.25;;;23.34
69857;BMP280;57147;53.582;10.112;2023-05-28T13:01:04;102023.22;;;23.54
69857;BMP280;57147;53.582;10.112;2023-05-28T13:06:05;102022.34;;;23.69
69857;BMP280;57147;53.582;10.112;2023-05-28T13:11:06;101965.97;;;22.89
69857;BMP280;57147;53.582;10.112;2023-05-28T13:16:09;101949.53;;;22.82
69857;BMP280;57147;53.582;10.112;2023-05-28T13:21:10;101980.47;;;23.47
69857;BMP280;57147;53.582;10.112;2023-05-28T13:26:10;102007.22;;;24.06
69857;BMP280;57147;53.582;10.112;2023-05-28T13:31:14;101994.66;;;24.17
69857;BMP280;57147;53.582;10.112;2023-05-28T13:36:14;101943.66;;;24.07
69857;BMP280;57147;53.582;10.112;2023-05-28T13:41:16;101980.06;;;24.71
69857;BMP280;57147;53.582;10.112;2023-05-28T13:46:19;101945.88;;;24.43
69857;BMP280;57147;53.582;10.112;2023-05-28T13:51:20;101965.38;;;24.07
69857;BMP280;57147;53.582;10.112;2023-05-28T13:56:20;101924.16;;;23.60
69857;BMP280;57147;53.582;10.112;2023-05-28T14:01:24;101926.66;;;24.10
69857;BMP280;57147;53.582;10.112;2023-05-28T14:06:25;101968.56;;;24.81
69857;BMP280;57147;53.582;10.112;2023-05-28T14:11:26;101950.81;;;24.87
69857;BMP280;57147;53.582;10.112;2023-05-28T14:16:29;101909.66;;;24.59
69857;BMP280;57147;53.582;10.112;2023-05-28T14:21:30;101933.81;;;25.20
69857;BMP280;57147;53.582;10.112;2023-05-28T14:26:30;101953.50;;;24.87
69857;BMP280;57147;53.582;10.112;2023-05-28T14:31:34;101941.28;;;25.00
69857;BMP280;57147;53.582;10.112;2023-05-28T14:36:34;101959.41;;;25.48
69857;BMP280;57147;53.582;10.112;2023-05-28T14:41:35;101965.53;;;25.75
69857;BMP280;57147;53.582;10.112;2023-05-28T14:46:39;101926.47;;;25.24
69857;BMP280;57147;53.582;10.112;2023-05-28T14:51:39;101965.09;;;25.36
69857;BMP280;57147;53.582;10.112;2023-05-28T14:56:40;101954.41;;;24.94
69857;BMP280;57147;53.582;10.112;2023-05-28T15:01:43;101948.06;;;25.13
69857;BMP280;57147;53.582;10.112;2023-05-28T15:06:44;101962.28;;;25.03
69857;BMP280;57147;53.582;10.112;2023-05-28T15:11:45;101958.31;;;25.53
69857;BMP280;57147;53.582;10.112;2023-05-28T15:16:48;101947.19;;;26.02
69857;BMP280;57147;53.582;10.112;2023-05-28T15:21:49;101942.47;;;26.43
69857;BMP280;57147;53.582;10.112;2023-05-28T15:26:50;101948.00;;;25.69
69857;BMP280;57147;53.582;10.112;2023-05-28T15:31:54;101905.81;;;25.19
69857;BMP280;57147;53.582;10.112;2023-05-28T15:36:56;101954.84;;;25.93
69857;BMP280;57147;53.582;10.112;2023-05-28T15:41:58;101894.75;;;25.72
69857;BMP280;57147;53.582;10.112;2023-05-28T15:47:04;101955.59;;;26.30
69857;BMP280;57147;53.582;10.112;2023-05-28T15:52:04;101953.34;;;26.43
69857;BMP280;57147;53.582;10.112;2023-05-28T15:57:06;101921.72;;;26.28
69857;BMP280;57147;53.582;10.112;2023-05-28T16:02:10;101948.44;;;26.63
69857;BMP280;57147;53.582;10.112;2023-05-28T16:07:11;101903.91;;;26.37
69857;BMP280;57147;53.582;10.112;2023-05-28T16:12:12;101954.72;;;26.74
69857;BMP280;57147;53.582;10.112;2023-05-28T16:17:17;101957.88;;;26.76
69857;BMP280;57147;53.582;10.112;2023-05-28T16:22:19;101945.34;;;26.68
69857;BMP280;57147;53.582;10.112;2023-05-28T16:27:20;101944.56;;;26.71
69857;BMP280;57147;53.582;10.112;2023-05-28T16:32:25;101948.22;;;26.89
69857;BMP280;57147;53.582;10.112;2023-05-28T16:37:26;101930.56;;;26.69
69857;BMP280;57147;53.582;10.112;2023-05-28T16:42:27;101960.28;;;26.88
69857;BMP280;57147;53.582;10.112;2023-05-28T16:47:33;101961.59;;;26.53
69857;BMP280;57147;53.582;10.112;2023-05-28T16:52:34;101938.47;;;25.86
69857;BMP280;57147;53.582;10.112;2023-05-28T16:57:35;101959.88;;;25.91
69857;BMP280;57147;53.582;10.112;2023-05-28T17:02:38;101922.50;;;25.47
69857;BMP280;57147;53.582;10.112;2023-05-28T17:07:39;101939.13;;;25.76
69857;BMP280;57147;53.582;10.112;2023-05-28T17:12:40;101936.59;;;25.57
69857;BMP280;57147;53.582;10.112;2023-05-28T17:17:44;101960.91;;;25.76
69857;BMP280;57147;53.582;10.112;2023-05-28T17:22:45;101992.09;;;24.96
69857;BMP280;57147;53.582;10.112;2023-05-28T17:27:45;101981.41;;;24.58
69857;BMP280;57147;53.582;10.112;2023-05-28T17:32:48;101977.59;;;23.98
69857;BMP280;57147;53.582;10.112;2023-05-28T17:37:49;102010.94;;;23.79
69857;BMP280;57147;53.582;10.112;2023-05-28T17:42:50;102020.50;;;24.11
69857;BMP280;57147;53.582;10.112;2023-05-28T17:47:53;102012.91;;;24.20
69857;BMP280;57147;53.582;10.112;2023-05-28T17:52:53;102029.38;;;24.08
69857;BMP280;57147;53.582;10.112;2023-05-28T17:57:54;102026.78;;;24.15
69857;BMP280;57147;53.582;10.112;2023-05-28T18:02:57;101995.75;;;23.74
69857;BMP280;57147;53.582;10.112;2023-05-28T18:07:58;102037.63;;;23.58
69857;BMP280;57147;53.582;10.112;2023-05-28T18:12:59;102011.88;;;23.32
69857;BMP280;57147;53.582;10.112;2023-05-28T18:18:02;102009.41;;;23.27
69857;BMP280;57147;53.582;10.112;2023-05-28T18:23:03;102040.72;;;23.41
69857;BMP280;57147;53.582;10.112;2023-05-28T18:28:08;102043.53;;;23.28
69857;BMP280;57147;53.582;10.112;2023-05-28T18:33:11;102011.03;;;22.66
69857;BMP280;57147;53.582;10.112;2023-05-28T18:38:12;102049.19;;;22.61
69857;BMP280;57147;53.582;10.112;2023-05-28T18:43:12;102047.28;;;22.33
69857;BMP280;57147;53.582;10.112;2023-05-28T18:48:16;102052.75;;;21.81
69857;BMP280;57147;53.582;10.112;2023-05-28T18:53:16;102033.72;;;21.54
69857;BMP280;57147;53.582;10.112;2023-05-28T18:58:17;102025.16;;;21.15
69857;BMP280;57147;53.582;10.112;2023-05-28T19:03:20;102044.25;;;20.86
69857;BMP280;57147;53.582;10.112;2023-05-28T19:08:21;102073.47;;;20.84
69857;BMP280;57147;53.582;10.112;2023-05-28T19:13:21;102038.66;;;20.38
69857;BMP280;57147;53.582;10.112;2023-05-28T19:18:25;102045.03;;;20.12
69857;BMP280;57147;53.582;10.112;2023-05-28T19:23:26;102089.19;;;20.08
69857;BMP280;57147;53.582;10.112;2023-05-28T19:28:27;102093.19;;;19.93
69857;BMP280;57147;53.582;10.112;2023-05-28T19:33:30;102098.97;;;19.83
69857;BMP280;57147;53.582;10.112;2023-05-28T19:38:31;102103.78;;;19.69
69857;BMP280;57147;53.582;10.112;2023-05-28T19:43:31;102101.66;;;19.54
69857;BMP280;57147;53.582;10.112;2023-05-28T19:48:35;102092.03;;;19.35
69857;BMP280;57147;53.582;10.112;2023-05-28T19:53:36;102069.44;;;18.93
69857;BMP280;57147;53.582;10.112;2023-05-28T19:58:37;102113.59;;;19.10
69857;BMP280;57147;53.582;10.112;2023-05-28T20:03:42;102078.97;;;18.74
69857;BMP280;57147;53.582;10.112;2023-05-28T20:08:43;102091.28;;;18.75
69857;BMP280;57147;53.582;10.112;2023-05-28T20:13:44;102088.44;;;18.54
69857;BMP280;57147;53.582;10.112;2023-05-28T20:18:47;102116.00;;;18.60
69857;BMP280;57147;53.582;10.112;2023-05-28T20:23:47;102104.53;;;18.28
69857;BMP280;57147;53.582;10.112;2023-05-28T20:28:49;102117.53;;;18.26
69857;BMP280;57147;53.582;10.112;2023-05-28T20:33:54;102141.06;;;18.21
69857;BMP280;57147;53.582;10.112;2023-05-28T20:38:55;102142.75;;;18.08
69857;BMP280;57147;53.582;10.112;2023-05-28T20:43:56;102124.97;;;17.90
69857;BMP280;57147;53.582;10.112;2023-05-28T20:48:59;102112.69;;;17.67
69857;BMP280;57147;53.582;10.112;2023-05-28T20:54:00;102062.81;;;17.21
69857;BMP280;57147;53.582;10.112;2023-05-28T20:59:01;102130.53;;;17.63
69857;BMP280;57147;53.582;10.112;2023-05-28T21:04:04;102131.03;;;17.42
69857;BMP280;57147;53.582;10.112;2023-05-28T21:09:05;102117.81;;;17.10
69857;BMP280;57147;53.582;10.112;2023-05-28T21:14:06;102145.06;;;17.17
69857;BMP280;57147;53.582;10.112;2023-05-28T21:19:09;102143.88;;;17.09
69857;BMP280;57147;53.582;10.112;2023-05-28T21:24:09;102120.63;;;17.05
69857;BMP280;57147;53.582;10.112;2023-05-28T21:29:10;102155.78;;;17.17
69857;BMP280;57147;53.582;10.112;2023-05-28T21:34:13;102159.19;;;17.09
69857;BMP280;57147;53.582;10.112;2023-05-28T21:39:14;102151.50;;;16.94
69857;BMP280;57147;53.582;10.112;2023-05-28T21:44:14;102145.16;;;16.76
69857;BMP280;57147;53.582;10.112;2023-05-28T21:49:18;102145.38;;;16.66
69857;BMP280;57147;53.582;10.112;2023-05-28T21:54:18;102147.38;;;16.60
69857;BMP280;57147;53.582;10.112;2023-05-28T21:59:19;102107.44;;;16.18
69857;BMP280;57147;53.582;10.112;2023-05-28T22:04:22;102148.75;;;16.44
69857;BMP280;57147;53.582;10.112;2023-05-28T22:09:23;102149.75;;;16.48
69857;BMP280;57147;53.582;10.112;2023-05-28T22:14:23;102132.66;;;16.17
69857;BMP280;57147;53.582;10.112;2023-05-28T22:19:26;102097.81;;;15.57
69857;BMP280;57147;53.582;10.112;2023-05-28T22:24:27;102134.16;;;15.63
69857;BMP280;57147;53.582;10.112;2023-05-28T22:29:28;102136.91;;;15.58
69857;BMP280;57147;53.582;10.112;2023-05-28T22:34:32;102167.78;;;15.69
69857;BMP280;57147;53.582;10.112;2023-05-28T22:39:32;102173.16;;;15.32
69857;BMP280;57147;53.582;10.112;2023-05-28T22:44:33;102178.88;;;15.07
69857;BMP280;57147;53.582;10.112;2023-05-28T22:49:36;102171.19;;;14.81
69857;BMP280;57147;53.582;10.112;2023-05-28T22:54:37;102191.97;;;14.84
69857;BMP280;57147;53.582;10.112;2023-05-28T22:59:37;102188.91;;;14.72
69857;BMP280;57147;53.582;10.112;2023-05-28T23:04:40;102196.19;;;14.67
69857;BMP280;57147;53.582;10.112;2023-05-28T23:09:41;102198.22;;;14.51
69857;BMP280;57147;53.582;10.112;2023-05-28T23:14:41;102192.53;;;14.58
69857;BMP280;57147;53.582;10.112;2023-05-28T23:19:45;102155.84;;;14.16
69857;BMP280;57147;53.582;10.112;2023-05-28T23:24:45;102163.59;;;14.12
69857;BMP280;57147;53.582;10.112;2023-05-28T23:29:46;102158.03;;;14.09
69857;BMP280;57147;53.582;10.112;2023-05-28T23:34:49;102191.38;;;14.40
69857;BMP280;57147;53.582;10.112;2023-05-28T23:39:49;102195.50;;;13.98
69857;BMP280;57147;53.582;10.112;2023-05-28T23:44:51;102201.00;;;14.12
69857;BMP280;57147;53.582;10.112;2023-05-28T23:49:54;102204.44;;;14.18
69857;BMP280;57147;53.582;10.112;2023-05-28T23:54:55;102194.22;;;13.91
69857;BMP280;57147;53.582;10.112;2023-05-28T23:59:55;102199.16;;;14.08
